Time;durP1;ratioP1;P1;durP2;ratioP2;P2;SDS_P1;SDS_P2;PMS_P1;PMS_P2;Temp;Humidity;BMP_temperature;BMP_pressure;BME280_temperature;BME280_humidity;BME280_pressure;Samples;Min_cycle;Max_cycle;Signal;HPM_P1;HPM_P2
2023/11/29 00:01:25;;;;;;;13.50;7.60;;;0.20;99.90;;;;;;5047336;28;20230;-67
2023/11/29 00:03:53;;;;;;;12.23;5.88;;;0.20;99.90;;;;;;5054709;28;20820;-68
2023/11/29 00:06:22;;;;;;;13.10;7.32;;;0.20;99.90;;;;;;5047414;28;20209;-67
2023/11/29 00:08:50;;;;;;;13.00;6.32;;;0.30;99.90;;;;;;5046789;28;20222;-68
2023/11/29 00:11:19;;;;;;;13.18;6.90;;;0.20;99.90;;;;;;5047498;28;20603;-66
2023/11/29 00:13:47;;;;;;;13.85;7.10;;;0.20;99.90;;;;;;5046750;28;20625;-67
2023/11/29 00:16:15;;;;;;;13.30;7.05;;;0.20;99.90;;;;;;5046534;28;20736;-67
2023/11/29 00:18:44;;;;;;;12.88;6.13;;;0.20;99.90;;;;;;5046739;28;20202;-68
2023/11/29 00:21:12;;;;;;;12.80;6.10;;;0.30;99.90;;;;;;5046210;28;20295;-70
2023/11/29 00:23:40;;;;;;;13.38;7.13;;;0.40;99.90;;;;;;5048285;28;20214;-66
2023/11/29 00:26:08;;;;;;;14.68;7.03;;;0.40;99.90;;;;;;5047975;28;20213;-65
2023/11/29 00:28:37;;;;;;;14.18;6.28;;;0.40;99.90;;;;;;5048274;28;20213;-64
2023/11/29 00:31:06;;;;;;;11.95;6.10;;;0.40;99.90;;;;;;5048572;28;20268;-65
2023/11/29 00:33:33;;;;;;;13.88;6.18;;;0.30;99.90;;;;;;5048096;28;20300;-65
2023/11/29 00:36:02;;;;;;;14.65;6.20;;;0.40;99.90;;;;;;5047639;28;20210;-65
2023/11/29 00:38:30;;;;;;;12.52;6.45;;;0.40;99.90;;;;;;5048068;28;20206;-63
2023/11/29 00:40:58;;;;;;;14.25;6.22;;;0.30;99.90;;;;;;5047521;28;20256;-64
2023/11/29 00:43:26;;;;;;;10.80;5.25;;;0.30;99.90;;;;;;5048151;28;20241;-64
2023/11/29 00:45:55;;;;;;;12.48;6.07;;;0.30;99.90;;;;;;5047237;28;20212;-65
2023/11/29 00:48:23;;;;;;;12.20;5.68;;;0.20;99.90;;;;;;5047970;28;20209;-63
2023/11/29 00:50:52;;;;;;;12.15;5.93;;;0.20;99.90;;;;;;5047782;28;20675;-66
2023/11/29 00:53:20;;;;;;;15.70;6.55;;;0.20;99.90;;;;;;5047859;28;20209;-63
2023/11/29 00:55:48;;;;;;;14.45;6.97;;;0.10;99.90;;;;;;5047294;28;20213;-64
2023/11/29 00:58:17;;;;;;;12.50;6.40;;;0.10;99.90;;;;;;5047549;28;20221;-60
2023/11/29 01:00:44;;;;;;;14.98;6.50;;;0.20;99.90;;;;;;5047360;28;20237;-64
2023/11/29 01:03:14;;;;;;;13.30;6.20;;;0.20;99.90;;;;;;5047710;28;20237;-63
2023/11/29 01:05:42;;;;;;;12.85;6.70;;;0.20;99.90;;;;;;5047605;28;20216;-67
2023/11/29 01:08:10;;;;;;;12.82;6.38;;;0.10;99.90;;;;;;5051628;28;20263;-65
2023/11/29 01:10:39;;;;;;;15.40;7.55;;;0.10;99.90;;;;;;5051348;28;20229;-63
2023/11/29 01:13:07;;;;;;;17.70;7.45;;;0.00;99.90;;;;;;5051515;28;20209;-64
2023/11/29 01:15:35;;;;;;;14.93;7.15;;;0.00;99.90;;;;;;5050873;28;20828;-62
2023/11/29 01:18:03;;;;;;;15.00;7.30;;;0.10;99.90;;;;;;5051635;28;20209;-64
2023/11/29 01:20:33;;;;;;;13.98;7.40;;;0.10;99.90;;;;;;5051092;28;20312;-62
2023/11/29 01:23:01;;;;;;;14.77;7.13;;;0.10;99.90;;;;;;5051273;28;20239;-60
2023/11/29 01:25:29;;;;;;;14.50;7.15;;;0.10;99.90;;;;;;5050948;28;20210;-63
2023/11/29 01:27:57;;;;;;;13.50;7.03;;;0.10;99.90;;;;;;5050963;28;20347;-65
2023/11/29 01:30:25;;;;;;;15.73;7.75;;;0.00;99.90;;;;;;5050801;28;20670;-65
2023/11/29 01:32:53;;;;;;;14.80;8.05;;;-0.10;99.90;;;;;;5051459;28;20280;-65
2023/11/29 01:35:21;;;;;;;16.02;7.82;;;-0.10;99.90;;;;;;5055831;28;20219;-64
2023/11/29 01:37:50;;;;;;;15.25;7.63;;;0.00;99.90;;;;;;5053877;28;20211;-64
2023/11/29 01:40:18;;;;;;;13.98;7.38;;;0.00;99.90;;;;;;5050557;28;20233;-64
2023/11/29 01:42:46;;;;;;;14.80;7.75;;;0.00;99.90;;;;;;5051414;28;20209;-64
2023/11/29 01:45:14;;;;;;;15.30;7.15;;;-0.10;99.90;;;;;;5050463;28;20227;-66
2023/11/29 01:47:42;;;;;;;15.32;8.00;;;0.00;99.90;;;;;;5050665;28;20208;-65
2023/11/29 01:50:11;;;;;;;16.15;7.97;;;0.00;99.90;;;;;;5050670;28;20329;-64
2023/11/29 01:52:40;;;;;;;15.10;7.70;;;0.10;99.90;;;;;;5051134;28;20207;-66
2023/11/29 01:55:13;;;;;;;14.30;7.82;;;0.10;99.90;;;;;;5058880;28;20925;-66
2023/11/29 01:57:42;;;;;;;13.82;7.32;;;0.10;99.90;;;;;;5051163;28;20215;-62
2023/11/29 02:00:11;;;;;;;13.75;7.10;;;0.00;99.90;;;;;;5050754;28;20265;-63
2023/11/29 02:02:40;;;;;;;15.52;8.07;;;0.00;99.90;;;;;;5051252;28;20210;-63
2023/11/29 02:05:09;;;;;;;14.13;8.27;;;0.00;99.90;;;;;;5049515;28;20689;-64
2023/11/29 02:07:38;;;;;;;18.33;8.05;;;0.00;99.90;;;;;;5050682;28;20692;-65
2023/11/29 02:10:08;;;;;;;16.17;7.78;;;0.00;99.90;;;;;;5050234;28;20723;-64
2023/11/29 02:12:37;;;;;;;17.45;7.82;;;0.00;99.90;;;;;;5050401;28;20210;-62
2023/11/29 02:15:06;;;;;;;17.08;8.30;;;-0.10;99.90;;;;;;5049424;28;20230;-63
2023/11/29 02:17:34;;;;;;;17.13;7.78;;;0.00;99.90;;;;;;5048963;28;20209;-65
2023/11/29 02:20:03;;;;;;;13.20;7.03;;;0.00;99.90;;;;;;5049955;28;20220;-63
2023/11/29 02:22:32;;;;;;;16.23;7.80;;;-0.10;99.90;;;;;;5049573;28;20212;-62
2023/11/29 02:25:02;;;;;;;16.10;7.45;;;-0.10;99.90;;;;;;5048604;28;20225;-65
2023/11/29 02:27:30;;;;;;;15.85;7.10;;;-0.10;99.90;;;;;;5049121;28;20301;-63
2023/11/29 02:29:58;;;;;;;16.35;8.02;;;-0.20;99.90;;;;;;5048584;28;20730;-59
2023/11/29 02:32:26;;;;;;;18.20;8.25;;;-0.30;99.90;;;;;;5048080;28;20241;-64
2023/11/29 02:34:54;;;;;;;16.63;7.88;;;-0.40;99.90;;;;;;5049553;28;20262;-65
2023/11/29 02:37:21;;;;;;;19.20;9.02;;;-0.50;99.90;;;;;;5050199;28;20209;-63
2023/11/29 02:39:49;;;;;;;16.40;7.78;;;-0.70;99.90;;;;;;5049757;28;20219;-64
2023/11/29 02:42:20;;;;;;;16.67;8.63;;;-0.80;99.90;;;;;;5050146;28;20255;-64
2023/11/29 02:44:48;;;;;;;17.05;8.50;;;-0.80;99.90;;;;;;5049530;28;20331;-62
2023/11/29 02:47:16;;;;;;;17.27;8.25;;;-1.00;99.90;;;;;;5049920;28;20243;-61
2023/11/29 02:49:44;;;;;;;18.52;9.50;;;-1.00;99.90;;;;;;5049185;28;20650;-65
2023/11/29 02:52:14;;;;;;;17.65;8.20;;;-1.00;99.90;;;;;;5040765;28;20244;-64
2023/11/29 02:54:42;;;;;;;16.60;7.57;;;-1.10;99.90;;;;;;5048000;28;20648;-63
2023/11/29 02:57:10;;;;;;;16.30;7.65;;;-1.10;99.90;;;;;;5048776;28;20209;-64
2023/11/29 02:59:41;;;;;;;18.27;9.13;;;-1.20;99.90;;;;;;5048227;28;20213;-60
2023/11/29 03:02:11;;;;;;;17.83;8.70;;;-1.20;99.90;;;;;;5048054;28;20710;-65
2023/11/29 03:04:39;;;;;;;19.15;9.15;;;-1.20;99.90;;;;;;5047808;28;20267;-65
2023/11/29 03:07:07;;;;;;;18.05;8.32;;;-1.20;99.90;;;;;;5048430;28;20209;-64
2023/11/29 03:09:35;;;;;;;19.58;8.95;;;-1.30;99.90;;;;;;5047957;28;20213;-63
2023/11/29 03:12:03;;;;;;;16.90;8.98;;;-1.20;99.90;;;;;;5048520;28;20213;-62
2023/11/29 03:14:33;;;;;;;19.10;8.82;;;-1.20;99.90;;;;;;5047456;28;20205;-64
2023/11/29 03:17:02;;;;;;;16.90;8.32;;;-1.20;99.90;;;;;;5047955;28;20251;-64
2023/11/29 03:19:30;;;;;;;18.60;8.68;;;-1.10;99.90;;;;;;5046828;28;20213;-64
2023/11/29 03:21:58;;;;;;;19.50;8.88;;;-1.00;99.90;;;;;;5049573;28;20211;-64
2023/11/29 03:24:26;;;;;;;16.35;7.82;;;-0.90;99.90;;;;;;5048759;28;20201;-66
2023/11/29 03:26:54;;;;;;;18.73;8.85;;;-0.80;99.90;;;;;;5049233;28;20292;-67
2023/11/29 03:29:22;;;;;;;17.00;7.47;;;-0.70;99.90;;;;;;5048576;28;20205;-66
2023/11/29 03:31:50;;;;;;;15.65;8.32;;;-0.50;99.90;;;;;;5049491;28;20241;-62
2023/11/29 03:34:19;;;;;;;16.70;7.78;;;-0.50;99.90;;;;;;5048810;28;20209;-61
2023/11/29 03:36:47;;;;;;;18.95;8.75;;;-0.40;99.90;;;;;;5049497;28;20215;-61
2023/11/29 03:39:15;;;;;;;16.52;7.50;;;-0.30;99.90;;;;;;5048748;28;20338;-62
2023/11/29 03:41:43;;;;;;;15.63;8.20;;;-0.30;99.90;;;;;;5049028;28;20287;-64
2023/11/29 03:44:11;;;;;;;17.02;8.05;;;-0.30;99.90;;;;;;5048164;28;20209;-60
2023/11/29 03:46:40;;;;;;;14.70;7.03;;;-0.30;99.90;;;;;;5049127;28;20569;-64
2023/11/29 03:49:08;;;;;;;14.13;6.95;;;-0.30;99.90;;;;;;5048430;28;20236;-63
2023/11/29 03:51:37;;;;;;;16.40;7.30;;;-0.40;99.90;;;;;;5048773;28;20263;-63
2023/11/29 03:54:13;;;;;;;15.98;6.75;;;-0.50;99.90;;;;;;5048197;28;20622;-67
2023/11/29 03:56:41;;;;;;;17.15;8.07;;;-0.60;99.90;;;;;;5048954;28;20232;-64
2023/11/29 03:59:09;;;;;;;16.80;7.20;;;-0.70;99.90;;;;;;5048454;28;20221;-62
2023/11/29 04:01:37;;;;;;;16.02;6.97;;;-0.80;99.90;;;;;;5048786;28;20707;-62
2023/11/29 04:04:05;;;;;;;13.70;7.15;;;-0.70;99.90;;;;;;5047809;28;20209;-65
2023/11/29 04:06:33;;;;;;;16.52;7.90;;;-0.70;99.90;;;;;;5048366;28;20229;-65
2023/11/29 04:09:03;;;;;;;16.90;7.30;;;-0.70;99.90;;;;;;5048123;28;20296;-66
2023/11/29 04:11:31;;;;;;;19.65;8.43;;;-0.80;99.90;;;;;;5048520;28;20236;-65
2023/11/29 04:13:59;;;;;;;15.52;6.80;;;-0.80;99.90;;;;;;5047004;28;20675;-65
2023/11/29 04:16:29;;;;;;;17.33;7.20;;;-0.70;99.90;;;;;;5048231;28;20205;-65
2023/11/29 04:18:58;;;;;;;15.23;7.47;;;-0.80;99.90;;;;;;5047894;28;20578;-63
2023/11/29 04:21:27;;;;;;;13.98;6.10;;;-0.80;99.90;;;;;;5048459;28;20227;-64
2023/11/29 04:23:56;;;;;;;17.27;7.78;;;-0.80;99.90;;;;;;5047001;28;20259;-63
2023/11/29 04:26:29;;;;;;;18.15;7.30;;;-0.80;99.90;;;;;;5048009;28;20208;-64
2023/11/29 04:28:57;;;;;;;14.73;6.57;;;-1.00;99.90;;;;;;5047754;28;20205;-60
2023/11/29 04:31:26;;;;;;;17.65;7.78;;;-1.10;99.90;;;;;;5048158;28;20229;-66
2023/11/29 04:33:54;;;;;;;18.02;8.82;;;-1.10;99.90;;;;;;5047899;28;20227;-67
2023/11/29 04:36:22;;;;;;;18.50;8.32;;;-1.10;99.90;;;;;;5048447;28;20296;-64
2023/11/29 04:38:50;;;;;;;19.98;8.32;;;-1.10;99.90;;;;;;5048286;28;20209;-67
2023/11/29 04:41:19;;;;;;;22.13;10.23;;;-1.10;99.90;;;;;;5047519;28;20221;-63
2023/11/29 04:43:49;;;;;;;16.45;7.93;;;-1.00;99.90;;;;;;5048416;28;20205;-63
2023/11/29 04:46:17;;;;;;;22.42;10.63;;;-0.90;99.90;;;;;;5048027;28;20584;-61
2023/11/29 04:48:45;;;;;;;21.33;9.05;;;-0.80;99.90;;;;;;5050491;28;20627;-63
2023/11/29 04:51:13;;;;;;;21.23;10.82;;;-0.80;99.90;;;;;;5049035;28;20330;-66
2023/11/29 04:53:41;;;;;;;21.10;9.18;;;-0.70;99.90;;;;;;5051665;28;20283;-61
2023/11/29 04:56:10;;;;;;;19.88;9.63;;;-0.60;99.90;;;;;;5048300;28;20801;-62
2023/11/29 04:58:40;;;;;;;19.00;8.63;;;-0.60;99.90;;;;;;5046912;28;20215;-61
2023/11/29 05:01:10;;;;;;;20.17;8.93;;;-0.60;99.90;;;;;;5047059;28;20221;-66
2023/11/29 05:03:39;;;;;;;17.77;9.20;;;-0.50;99.90;;;;;;5046587;28;20701;-63
2023/11/29 05:06:09;;;;;;;20.25;9.15;;;-0.50;99.90;;;;;;5046231;28;20229;-63
2023/11/29 05:08:37;;;;;;;21.38;9.68;;;-0.40;99.90;;;;;;5046626;28;20689;-62
2023/11/29 05:11:06;;;;;;;19.27;8.68;;;-0.40;99.90;;;;;;5047302;28;20221;-65
2023/11/29 05:13:35;;;;;;;15.82;8.18;;;-0.40;99.90;;;;;;5040966;28;20208;-64
2023/11/29 05:16:03;;;;;;;16.52;7.85;;;-0.30;99.90;;;;;;5045739;28;20208;-67
2023/11/29 05:18:32;;;;;;;15.35;6.97;;;-0.40;99.90;;;;;;5046768;28;20205;-67
2023/11/29 05:21:00;;;;;;;17.92;7.53;;;-0.30;99.90;;;;;;5047068;28;20312;-68
2023/11/29 05:23:29;;;;;;;17.63;7.65;;;-0.30;99.90;;;;;;5047446;28;20205;-66
2023/11/29 05:25:57;;;;;;;17.45;6.72;;;-0.20;99.90;;;;;;5046838;28;20634;-67
2023/11/29 05:28:27;;;;;;;15.18;6.82;;;-0.20;99.90;;;;;;5047272;28;20267;-66
2023/11/29 05:30:55;;;;;;;16.48;7.25;;;-0.20;99.90;;;;;;5048286;28;20229;-67
2023/11/29 05:33:23;;;;;;;16.52;7.20;;;-0.20;99.90;;;;;;5047540;28;20806;-67
2023/11/29 05:35:54;;;;;;;14.95;6.93;;;-0.20;99.90;;;;;;5047293;28;20266;-68
2023/11/29 05:38:22;;;;;;;16.13;7.28;;;-0.10;99.90;;;;;;5047496;28;20698;-67
2023/11/29 05:40:50;;;;;;;13.70;6.20;;;-0.10;99.90;;;;;;5046514;28;20720;-68
2023/11/29 05:43:18;;;;;;;15.50;6.90;;;-0.10;99.90;;;;;;5047285;28;20278;-68
2023/11/29 05:45:46;;;;;;;16.77;7.63;;;0.00;99.90;;;;;;5040358;28;20205;-66
2023/11/29 05:48:14;;;;;;;15.98;7.95;;;-0.10;99.90;;;;;;5051533;28;20201;-67
2023/11/29 05:50:42;;;;;;;15.70;7.32;;;0.00;99.90;;;;;;5046685;28;20226;-65
2023/11/29 05:53:11;;;;;;;14.55;6.82;;;0.00;99.90;;;;;;5049790;28;20990;-67
2023/11/29 05:55:41;;;;;;;16.05;7.80;;;-0.10;99.90;;;;;;5050271;28;20268;-66
2023/11/29 05:58:09;;;;;;;15.35;7.38;;;0.00;99.90;;;;;;5050426;28;20303;-67
2023/11/29 06:00:37;;;;;;;15.15;7.15;;;0.00;99.90;;;;;;5050597;28;20236;-65
2023/11/29 06:03:06;;;;;;;14.23;7.00;;;0.10;99.90;;;;;;5050520;28;20207;-69
2023/11/29 06:05:35;;;;;;;14.20;6.35;;;0.20;99.90;;;;;;5049383;28;20213;-65
2023/11/29 06:08:03;;;;;;;16.98;8.13;;;0.20;99.90;;;;;;5049744;28;20205;-64
2023/11/29 06:10:32;;;;;;;16.02;7.07;;;0.30;99.90;;;;;;5049976;28;20217;-66
2023/11/29 06:13:00;;;;;;;14.68;7.45;;;0.30;99.90;;;;;;5049297;28;20221;-67
2023/11/29 06:15:28;;;;;;;16.08;7.45;;;0.20;99.90;;;;;;5048664;28;20267;-66
2023/11/29 06:17:56;;;;;;;17.88;8.35;;;0.20;99.90;;;;;;5049390;28;20238;-66
2023/11/29 06:20:24;;;;;;;18.08;8.15;;;0.30;99.90;;;;;;5049062;28;20230;-66
2023/11/29 06:22:53;;;;;;;17.08;8.10;;;0.20;99.90;;;;;;5048773;28;20289;-66
2023/11/29 06:25:21;;;;;;;17.13;8.20;;;0.30;99.90;;;;;;5048455;28;20709;-65
2023/11/29 06:27:50;;;;;;;17.77;7.85;;;0.30;99.90;;;;;;5052570;28;20272;-66
2023/11/29 06:30:18;;;;;;;17.90;8.82;;;0.30;99.90;;;;;;5048218;28;20229;-65
2023/11/29 06:32:46;;;;;;;15.48;6.82;;;0.30;99.90;;;;;;5048921;28;20225;-65
2023/11/29 06:35:15;;;;;;;15.95;7.72;;;0.40;99.90;;;;;;5048525;28;20549;-65
2023/11/29 06:37:47;;;;;;;15.52;7.03;;;0.40;99.90;;;;;;5048779;28;20210;-67
2023/11/29 06:40:23;;;;;;;15.30;6.85;;;0.40;99.90;;;;;;5047837;28;20257;-68
2023/11/29 06:42:53;;;;;;;15.23;6.63;;;0.50;99.90;;;;;;5048576;28;20202;-65
2023/11/29 06:45:21;;;;;;;15.75;6.18;;;0.50;99.90;;;;;;5042574;28;20216;-67
2023/11/29 06:47:51;;;;;;;18.02;6.53;;;0.40;99.90;;;;;;5047331;28;20237;-70
2023/11/29 06:50:19;;;;;;;15.77;7.22;;;0.50;99.90;;;;;;5044806;28;20252;-67
2023/11/29 06:52:47;;;;;;;14.85;6.30;;;0.50;99.90;;;;;;5048308;28;20257;-66
2023/11/29 06:55:15;;;;;;;16.25;6.82;;;0.40;99.90;;;;;;5048045;28;20270;-64
2023/11/29 06:57:44;;;;;;;14.30;6.70;;;0.40;99.90;;;;;;5048554;28;20197;-64
2023/11/29 07:00:16;;;;;;;16.30;7.75;;;0.50;99.90;;;;;;5047906;28;20237;-68
2023/11/29 07:02:45;;;;;;;14.38;6.15;;;0.60;99.90;;;;;;5048570;28;20332;-66
2023/11/29 07:05:13;;;;;;;14.40;6.90;;;0.50;99.90;;;;;;5047133;28;20201;-65
2023/11/29 07:07:41;;;;;;;14.73;6.30;;;0.40;99.90;;;;;;5048382;28;20202;-65
2023/11/29 07:10:10;;;;;;;16.10;6.95;;;0.40;99.90;;;;;;5046283;28;20231;-66
2023/11/29 07:12:38;;;;;;;14.70;7.13;;;0.40;99.90;;;;;;5044059;28;20261;-64
2023/11/29 07:15:06;;;;;;;16.15;6.65;;;0.50;99.90;;;;;;5045800;28;20555;-64
2023/11/29 07:17:36;;;;;;;14.63;6.60;;;0.60;99.90;;;;;;5047468;28;20203;-68
2023/11/29 07:20:06;;;;;;;14.15;6.28;;;0.60;99.90;;;;;;5049041;28;20227;-66
2023/11/29 07:22:37;;;;;;;12.68;5.55;;;0.60;99.90;;;;;;5047877;28;20316;-67
2023/11/29 07:25:06;;;;;;;14.60;5.95;;;0.50;99.90;;;;;;5047624;28;20219;-69
2023/11/29 07:27:34;;;;;;;16.00;6.90;;;0.40;99.90;;;;;;5048235;28;20389;-61
2023/11/29 07:30:03;;;;;;;19.02;7.28;;;0.50;99.90;;;;;;5046089;28;20226;-67
2023/11/29 07:32:31;;;;;;;13.70;6.00;;;0.50;99.90;;;;;;5039422;28;20293;-69
2023/11/29 07:35:00;;;;;;;14.63;6.60;;;0.70;99.90;;;;;;5047229;28;20203;-68
2023/11/29 07:37:28;;;;;;;13.57;6.32;;;0.70;99.90;;;;;;5045454;28;20210;-67
2023/11/29 07:39:56;;;;;;;16.60;6.40;;;0.60;99.90;;;;;;5047089;28;20719;-67
2023/11/29 07:42:24;;;;;;;14.95;7.15;;;0.80;99.90;;;;;;5041828;28;20201;-68
2023/11/29 07:44:52;;;;;;;17.17;7.50;;;0.70;99.90;;;;;;5039193;28;20212;-65
2023/11/29 07:47:20;;;;;;;15.15;6.97;;;0.70;99.90;;;;;;5047260;28;20203;-67
2023/11/29 07:49:48;;;;;;;14.23;7.00;;;0.70;99.90;;;;;;5036932;28;20202;-66
2023/11/29 07:52:17;;;;;;;15.38;6.88;;;0.80;99.90;;;;;;5042225;28;20296;-67
2023/11/29 07:54:45;;;;;;;12.75;5.85;;;0.90;99.90;;;;;;5047420;28;20273;-70
2023/11/29 07:57:13;;;;;;;15.77;6.40;;;1.00;99.90;;;;;;5048739;28;20807;-67
2023/11/29 07:59:41;;;;;;;13.52;6.28;;;1.10;99.90;;;;;;5046884;28;20216;-66
2023/11/29 08:02:10;;;;;;;14.18;6.43;;;1.10;99.90;;;;;;5048226;28;20240;-70
2023/11/29 08:04:37;;;;;;;15.20;6.47;;;1.20;99.90;;;;;;5046642;28;20213;-70
2023/11/29 08:07:05;;;;;;;15.07;6.35;;;1.30;99.90;;;;;;5047200;28;20224;-68
2023/11/29 08:09:35;;;;;;;13.15;6.00;;;1.30;99.90;;;;;;5047166;28;20558;-67
2023/11/29 08:12:03;;;;;;;13.65;6.40;;;1.30;99.90;;;;;;5047577;28;20664;-65
2023/11/29 08:14:32;;;;;;;14.57;6.30;;;1.30;99.90;;;;;;5046501;28;20229;-66
2023/11/29 08:17:00;;;;;;;14.50;5.68;;;1.40;99.90;;;;;;5047089;28;20243;-67
2023/11/29 08:19:28;;;;;;;13.23;5.75;;;1.50;99.90;;;;;;5046720;28;20454;-68
2023/11/29 08:21:56;;;;;;;13.63;6.40;;;1.50;99.90;;;;;;5047191;28;20697;-69
2023/11/29 08:24:24;;;;;;;14.98;6.47;;;1.60;99.90;;;;;;5046485;28;20210;-69
2023/11/29 08:26:53;;;;;;;13.68;6.57;;;1.60;99.90;;;;;;5047140;28;20208;-66
2023/11/29 08:29:21;;;;;;;13.35;6.45;;;1.60;99.90;;;;;;5046926;28;20213;-65
2023/11/29 08:31:49;;;;;;;13.75;6.20;;;1.70;99.90;;;;;;5045846;28;20716;-66
2023/11/29 08:34:17;;;;;;;14.50;5.80;;;1.70;99.90;;;;;;5047290;28;20263;-65
2023/11/29 08:36:45;;;;;;;12.15;5.95;;;1.80;99.90;;;;;;5048010;28;20211;-66
2023/11/29 08:39:14;;;;;;;13.35;5.60;;;1.80;99.90;;;;;;5047632;28;20292;-65
2023/11/29 08:41:43;;;;;;;10.02;4.55;;;2.00;99.90;;;;;;5048184;28;20231;-68
2023/11/29 08:44:15;;;;;;;12.32;4.75;;;2.10;99.90;;;;;;5047100;28;20708;-67
2023/11/29 08:46:43;;;;;;;10.90;4.28;;;2.00;99.90;;;;;;5047947;28;20685;-67
2023/11/29 08:49:11;;;;;;;12.25;4.40;;;2.10;99.90;;;;;;5047183;28;20296;-70
2023/11/29 08:51:39;;;;;;;10.20;3.97;;;2.10;99.90;;;;;;5046779;28;20229;-65
2023/11/29 08:54:07;;;;;;;10.02;3.83;;;2.20;99.90;;;;;;5045871;28;20227;-65
2023/11/29 08:56:35;;;;;;;10.27;4.07;;;2.20;99.90;;;;;;5046560;28;20245;-70
2023/11/29 08:59:04;;;;;;;8.27;3.67;;;2.20;99.90;;;;;;5046028;28;20219;-68
2023/11/29 09:01:33;;;;;;;10.65;4.00;;;2.40;99.90;;;;;;5046948;28;20656;-67
2023/11/29 09:04:02;;;;;;;9.55;3.60;;;2.40;99.90;;;;;;5045608;28;20259;-69
2023/11/29 09:06:31;;;;;;;11.73;4.53;;;2.50;99.90;;;;;;5046820;28;20221;-68
2023/11/29 09:08:59;;;;;;;10.02;3.80;;;2.40;99.90;;;;;;5046124;28;20246;-66
2023/11/29 09:11:27;;;;;;;8.75;3.17;;;2.50;99.90;;;;;;5052715;28;20255;-66
2023/11/29 09:13:55;;;;;;;10.68;3.75;;;2.50;99.90;;;;;;5045952;28;20263;-66
2023/11/29 09:16:23;;;;;;;8.20;3.17;;;2.50;99.90;;;;;;5046602;28;20294;-67
2023/11/29 09:18:53;;;;;;;12.75;3.75;;;2.50;99.90;;;;;;5045318;28;20446;-66
2023/11/29 09:21:20;;;;;;;8.75;3.22;;;2.60;99.90;;;;;;5047639;28;20316;-66
2023/11/29 09:23:53;;;;;;;10.50;3.25;;;2.50;99.90;;;;;;5047486;28;20684;-66
2023/11/29 09:26:21;;;;;;;8.70;3.30;;;2.50;99.90;;;;;;5047661;28;20212;-69
2023/11/29 09:28:49;;;;;;;8.95;3.25;;;2.50;99.90;;;;;;5051199;28;20214;-66
2023/11/29 09:31:17;;;;;;;9.87;4.10;;;2.40;99.90;;;;;;5051738;28;20232;-66
2023/11/29 09:33:45;;;;;;;9.32;3.28;;;2.50;99.90;;;;;;5051234;28;20494;-64
2023/11/29 09:36:15;;;;;;;8.65;3.33;;;2.60;99.90;;;;;;5051358;28;20212;-65
2023/11/29 09:38:43;;;;;;;8.23;2.90;;;2.70;99.90;;;;;;5051932;28;20262;-68
2023/11/29 09:41:13;;;;;;;8.98;3.53;;;2.80;99.90;;;;;;5051560;28;20225;-68
2023/11/29 09:43:42;;;;;;;9.60;4.00;;;2.80;99.90;;;;;;5051226;28;20671;-66
2023/11/29 09:46:10;;;;;;;8.60;3.22;;;2.80;99.90;;;;;;5050569;28;20211;-67
2023/11/29 09:48:38;;;;;;;9.23;3.50;;;3.00;99.90;;;;;;5051594;28;20236;-65
2023/11/29 09:51:07;;;;;;;8.20;3.10;;;3.00;99.90;;;;;;5050387;28;20867;-66
2023/11/29 09:53:36;;;;;;;9.10;3.45;;;3.00;99.90;;;;;;5050760;28;20227;-66
2023/11/29 09:56:07;;;;;;;8.43;3.10;;;2.90;99.90;;;;;;5050781;28;20588;-65
2023/11/29 09:58:35;;;;;;;9.68;3.38;;;2.90;99.90;;;;;;5051182;28;20851;-66
2023/11/29 10:01:03;;;;;;;10.73;3.65;;;2.90;99.90;;;;;;5050604;28;20645;-64
2023/11/29 10:03:31;;;;;;;9.07;3.40;;;2.90;99.90;;;;;;5051057;28;20205;-68
2023/11/29 10:05:59;;;;;;;8.13;3.00;;;2.90;99.90;;;;;;5050191;28;20516;-67
2023/11/29 10:08:29;;;;;;;9.43;3.53;;;2.90;99.90;;;;;;5050768;28;20209;-66
2023/11/29 10:11:00;;;;;;;8.93;3.13;;;2.90;99.90;;;;;;5050590;28;20240;-64
2023/11/29 10:13:29;;;;;;;9.70;3.22;;;2.80;99.90;;;;;;5050730;28;20214;-67
2023/11/29 10:15:57;;;;;;;9.02;3.58;;;2.80;99.90;;;;;;5050356;28;20732;-66
2023/11/29 10:18:25;;;;;;;9.55;3.63;;;2.80;99.90;;;;;;5050857;28;20213;-67
2023/11/29 10:20:53;;;;;;;8.30;2.95;;;2.80;99.90;;;;;;5050171;28;20232;-66
2023/11/29 10:23:37;;;;;;;9.25;3.45;;;3.00;99.90;;;;;;5050958;28;20211;-66
2023/11/29 10:26:08;;;;;;;8.43;2.90;;;3.20;99.90;;;;;;5050215;28;20645;-65
2023/11/29 10:28:36;;;;;;;9.23;3.67;;;3.40;99.90;;;;;;5050591;28;20539;-67
2023/11/29 10:31:08;;;;;;;10.63;3.73;;;3.60;99.90;;;;;;5050374;28;20494;-64
2023/11/29 10:33:39;;;;;;;8.90;3.37;;;3.70;99.90;;;;;;5050277;28;20454;-68
2023/11/29 10:36:08;;;;;;;8.50;2.97;;;3.60;99.90;;;;;;5049923;28;20937;-65
2023/11/29 10:38:41;;;;;;;9.80;3.50;;;3.60;99.90;;;;;;5049328;28;20686;-65
2023/11/29 10:41:11;;;;;;;9.50;3.40;;;3.60;99.90;;;;;;5050547;28;20885;-67
2023/11/29 10:43:42;;;;;;;11.50;3.87;;;3.50;99.90;;;;;;5049922;28;20222;-68
2023/11/29 10:46:16;;;;;;;8.95;3.10;;;3.30;99.90;;;;;;5049916;28;21230;-66
2023/11/29 10:48:52;;;;;;;8.63;3.10;;;3.20;99.90;;;;;;5049864;28;20300;-69
2023/11/29 10:51:21;;;;;;;9.07;3.60;;;3.10;99.90;;;;;;5049802;28;20467;-66
2023/11/29 10:53:50;;;;;;;8.73;3.47;;;3.10;99.90;;;;;;5049790;28;20450;-65
2023/11/29 10:56:20;;;;;;;9.50;2.90;;;3.20;99.90;;;;;;5049272;28;20217;-67
2023/11/29 10:58:54;;;;;;;9.17;3.60;;;3.20;99.90;;;;;;5049641;28;20245;-65
2023/11/29 11:01:32;;;;;;;8.70;3.70;;;3.30;99.90;;;;;;5050198;28;20555;-64
2023/11/29 11:04:01;;;;;;;8.77;3.50;;;3.30;99.90;;;;;;5049332;28;20444;-65
2023/11/29 11:06:40;;;;;;;8.73;3.23;;;3.30;99.90;;;;;;5049935;28;20462;-64
2023/11/29 11:09:36;;;;;;;9.60;3.70;;;3.20;99.90;;;;;;5049799;28;20479;-68
2023/11/29 11:12:06;;;;;;;7.70;2.70;;;3.20;99.90;;;;;;5050085;28;21220;-66
2023/11/29 11:14:57;;;;;;;8.50;2.60;;;3.20;99.90;;;;;;5049211;28;20487;-68
2023/11/29 11:17:26;;;;;;;8.57;3.43;;;3.30;99.90;;;;;;5044455;28;20834;-67
2023/11/29 11:19:54;;;;;;;8.80;2.70;;;3.50;99.90;;;;;;5049276;28;20454;-67
2023/11/29 11:22:31;;;;;;;10.30;2.90;;;3.70;99.90;;;;;;5049450;28;20475;-64
2023/11/29 11:25:07;;;;;;;8.47;3.07;;;3.80;99.90;;;;;;5048924;28;20485;-66
2023/11/29 11:27:38;;;;;;;8.20;2.60;;;3.90;99.90;;;;;;5049571;28;20550;-66
2023/11/29 11:30:25;;;;;;;8.87;2.90;;;3.90;99.90;;;;;;5048930;28;20563;-67
2023/11/29 11:32:55;;;;;;;9.93;3.27;;;3.90;99.90;;;;;;5049366;28;20861;-64
2023/11/29 11:35:31;;;;;;;8.00;3.43;;;4.00;99.90;;;;;;5048299;28;20510;-67
2023/11/29 11:38:01;;;;;;;7.90;2.77;;;4.20;99.90;;;;;;5049313;28;20448;-66
2023/11/29 11:40:32;;;;;;;7.17;2.50;;;4.30;99.90;;;;;;5048872;28;20464;-66
2023/11/29 11:43:02;;;;;;;9.03;2.87;;;4.30;99.90;;;;;;5049196;28;20495;-66
2023/11/29 11:45:32;;;;;;;8.30;2.80;;;4.50;99.90;;;;;;5048717;28;20455;-65
2023/11/29 11:48:01;;;;;;;8.40;3.17;;;4.60;99.90;;;;;;5048322;28;20448;-68
2023/11/29 11:50:30;;;;;;;7.90;2.77;;;4.70;99.90;;;;;;5046952;28;20459;-67
2023/11/29 11:52:59;;;;;;;7.83;2.70;;;4.70;99.90;;;;;;5047804;28;20942;-69
2023/11/29 11:55:28;;;;;;;7.53;2.67;;;4.70;99.90;;;;;;5047191;28;21207;-67
2023/11/29 11:57:59;;;;;;;7.10;2.60;;;4.60;99.90;;;;;;5047635;28;20444;-67
2023/11/29 12:00:30;;;;;;;7.90;2.50;;;4.50;99.90;;;;;;5047130;28;20819;-65
2023/11/29 12:03:00;;;;;;;7.70;2.60;;;4.50;99.90;;;;;;5047437;28;20527;-66
2023/11/29 12:05:29;;;;;;;8.20;2.63;;;4.70;99.90;;;;;;5039064;28;20444;-64
2023/11/29 12:07:58;;;;;;;7.23;2.70;;;4.80;99.90;;;;;;5047528;28;20443;-65
2023/11/29 12:10:26;;;;;;;8.20;2.50;;;4.90;99.90;;;;;;5046960;28;20477;-64
2023/11/29 12:12:55;;;;;;;6.67;2.03;;;4.90;99.90;;;;;;5047375;28;20948;-66
2023/11/29 12:15:23;;;;;;;7.70;2.20;;;4.80;99.90;;;;;;5046280;28;20483;-66
2023/11/29 12:17:53;;;;;;;7.43;1.97;;;4.80;99.90;;;;;;5045228;28;20513;-67
2023/11/29 12:20:22;;;;;;;8.67;2.80;;;4.90;99.90;;;;;;5046708;28;20468;-66
2023/11/29 12:22:52;;;;;;;6.90;2.30;;;5.10;99.90;;;;;;5047109;28;20462;-64
2023/11/29 12:25:20;;;;;;;7.57;2.30;;;5.20;99.90;;;;;;5046985;28;20447;-69
2023/11/29 12:27:50;;;;;;;8.20;2.50;;;5.30;99.90;;;;;;5046847;28;20992;-67
2023/11/29 12:30:19;;;;;;;8.40;2.30;;;5.20;99.90;;;;;;5043238;28;20574;-66
2023/11/29 12:32:49;;;;;;;7.67;2.37;;;5.00;99.90;;;;;;5046634;28;20444;-66
2023/11/29 12:35:19;;;;;;;7.83;2.53;;;4.90;99.90;;;;;;5045787;28;20491;-66
2023/11/29 12:37:47;;;;;;;8.70;2.87;;;5.00;99.90;;;;;;5046674;28;20444;-66
2023/11/29 12:40:18;;;;;;;8.00;3.03;;;5.00;99.90;;;;;;5045814;28;20480;-69
2023/11/29 12:42:48;;;;;;;8.27;1.90;;;5.00;99.90;;;;;;5046887;28;20444;-65
2023/11/29 12:45:18;;;;;;;7.60;2.00;;;4.90;99.90;;;;;;5046141;28;20451;-64
2023/11/29 12:47:46;;;;;;;7.03;2.17;;;4.80;99.90;;;;;;5045685;28;20828;-64
2023/11/29 12:50:14;;;;;;;7.33;2.10;;;4.90;99.90;;;;;;5046932;28;20476;-66
2023/11/29 12:52:44;;;;;;;7.43;2.37;;;4.90;99.90;;;;;;5047785;28;20458;-66
2023/11/29 12:55:12;;;;;;;7.40;2.33;;;4.90;99.90;;;;;;5046859;28;21072;-65